Impacts TAF Board INFO
FOR SITUATIONAL AWARENESS. NOT TO BE USED FOR FLIGHT PLANNING PURPOSES.
IDs:

KMDW - Chicago/Midway Intl, IL, US

Issued at 2333 UTC 26 Feb 2017
Updated at 0159 UTC 27 Feb 2017
Potential Impact None Slight Moderate High
Time0153Z 27/02Z 27/03Z 27/04Z 27/05Z 27/06Z 27/07Z 27/08Z 27/09Z 27/10Z 27/11Z 27/12Z 27/13Z 27/14Z
Type OBS PRVL PRVL PRVL PRVL PRVL PRVL PRVL PRVL PRVL PRVL PRVL PRVL PRVL
VIS 10 >6 >6 >6 >6 >6 >6 >6 >6 >6 >6 >6 >6 >6
CIG 60 60 60 60 60 60 60 60 60 60 60 60 60 60
Cover OVC BKN BKN BKN BKN BKN BKN BKN BKN BKN BKN BKN BKN BKN
FltCat VFR VFR VFR VFR VFR VFR VFR VFR VFR VFR VFR VFR VFR VFR
WX -- -- -- -- -- -- -- -- -- -- -- -- -- --
WDir 230 210 210 210 210 210 210 210 210 210 210 210 210 210
WSpd 16 6 6 6 6 6 6 6 6 6 6 6 6 6
WGst -- -- -- -- -- -- -- -- -- -- -- -- -- --

Raw TAF
KMDW 262333Z 2700/2724 24012G22KT P6SM SCT070 SCT100
  FM270200 21006KT P6SM BKN060
  FM271500 19010KT P6SM SCT060
  FM271800 19012G18KT P6SM SCT060


Raw METAR
KMDW 270153Z 23016KT 10SM BKN060 OVC075 07/M06 A3001 RMK AO2 SLP173 VIRGA T00721056 $
KMDW 270053Z 24007G16KT 10SM BKN065 OVC075 08/M06 A2999 RMK AO2 SLP166 VIRGA E T00781056 $
KMDW 262353Z 22008KT 10SM BKN100 08/M07 A2997 RMK AO2 SLP156 T00781067 10094 20067 51008 $
KMDW 262253Z 22016KT 10SM SCT070 SCT100 08/M07 A2996 RMK AO2 SLP155 T00831072 $

METAR Board
Radar Display
Forecast Discussion

FOR SITUATIONAL AWARENESS. NOT TO BE USED FOR FLIGHT PLANNING PURPOSES.

Page loaded:  01:59 UTC  |   05:59 PM Pacific  |   06:59 PM Mountain  |   07:59 PM Central  |   08:59 PM Eastern

 

ADVISORIES

FORECASTS

FORECASTS

OBSERVATIONS

USER TOOLS

ABOUT US